sensor_id;sensor_type;location;lat;lon;timestamp;pressure;altitude;pressure_sealevel;temperature;humidity
61357;BME280;47227;46.752;23.576;2023-05-23T06:55:08;96154.98;;;16.87;61.23
61357;BME280;47227;46.752;23.576;2023-05-23T06:57:45;96148.13;;;17.01;60.46
61357;BME280;47227;46.752;23.576;2023-05-23T07:00:19;96145.09;;;17.09;59.47
61357;BME280;47227;46.752;23.576;2023-05-23T07:02:57;96145.99;;;17.21;59.91
61357;BME280;47227;46.752;23.576;2023-05-23T07:05:27;96146.08;;;17.33;59.59
61357;BME280;47227;46.752;23.576;2023-05-23T07:07:55;96144.50;;;17.44;58.70
61357;BME280;47227;46.752;23.576;2023-05-23T07:10:22;96141.76;;;17.58;58.70
61357;BME280;47227;46.752;23.576;2023-05-23T07:12:50;96138.66;;;17.69;58.23
61357;BME280;47227;46.752;23.576;2023-05-23T07:15:19;96135.14;;;17.82;58.18
61357;BME280;47227;46.752;23.576;2023-05-23T07:17:55;96128.44;;;17.88;56.95
61357;BME280;47227;46.752;23.576;2023-05-23T07:20:22;96130.64;;;18.00;56.77
61357;BME280;47227;46.752;23.576;2023-05-23T07:22:49;96125.30;;;18.12;56.27
61357;BME280;47227;46.752;23.576;2023-05-23T07:25:17;96127.69;;;18.26;57.10
61357;BME280;47227;46.752;23.576;2023-05-23T07:27:44;96125.04;;;18.40;56.90
61357;BME280;47227;46.752;23.576;2023-05-23T07:30:11;96130.66;;;18.55;56.59
61357;BME280;47227;46.752;23.576;2023-05-23T07:32:38;96129.94;;;18.69;56.08
61357;BME280;47227;46.752;23.576;2023-05-23T07:35:06;96126.50;;;18.83;53.57
61357;BME280;47227;46.752;23.576;2023-05-23T07:37:32;96127.37;;;18.97;52.32
61357;BME280;47227;46.752;23.576;2023-05-23T07:39:59;96123.73;;;19.07;48.38
61357;BME280;47227;46.752;23.576;2023-05-23T07:42:26;96122.11;;;19.12;48.26
61357;BME280;47227;46.752;23.576;2023-05-23T07:44:53;96122.41;;;19.25;50.12
61357;BME280;47227;46.752;23.576;2023-05-23T07:47:20;96122.80;;;19.35;47.67
61357;BME280;47227;46.752;23.576;2023-05-23T07:49:47;96122.98;;;19.42;47.79
61357;BME280;47227;46.752;23.576;2023-05-23T07:52:17;96121.27;;;19.54;48.81
61357;BME280;47227;46.752;23.576;2023-05-23T07:54:44;96121.17;;;19.63;47.59
61357;BME280;47227;46.752;23.576;2023-05-23T07:57:11;96120.04;;;19.74;48.78
61357;BME280;47227;46.752;23.576;2023-05-23T07:59:41;96117.89;;;19.88;49.24
61357;BME280;47227;46.752;23.576;2023-05-23T08:02:07;96118.88;;;20.02;49.01
61357;BME280;47227;46.752;23.576;2023-05-23T08:04:34;96116.48;;;20.13;47.33
61357;BME280;47227;46.752;23.576;2023-05-23T08:07:01;96119.39;;;20.22;45.02
61357;BME280;47227;46.752;23.576;2023-05-23T08:09:44;96122.66;;;20.30;44.86
61357;BME280;47227;46.752;23.576;2023-05-23T08:12:13;96121.80;;;20.41;46.20
61357;BME280;47227;46.752;23.576;2023-05-23T08:14:41;96122.88;;;20.47;44.08
61357;BME280;47227;46.752;23.576;2023-05-23T08:17:22;96127.50;;;20.57;44.52
61357;BME280;47227;46.752;23.576;2023-05-23T08:19:50;96127.64;;;20.64;43.25
61357;BME280;47227;46.752;23.576;2023-05-23T08:25:55;96126.17;;;20.79;43.66
61357;BME280;47227;46.752;23.576;2023-05-23T08:28:26;96123.38;;;20.93;43.84
61357;BME280;47227;46.752;23.576;2023-05-23T08:30:54;96128.34;;;21.06;43.82
61357;BME280;47227;46.752;23.576;2023-05-23T08:33:23;96127.71;;;21.17;43.94
61357;BME280;47227;46.752;23.576;2023-05-23T08:35:52;96129.91;;;21.27;43.72
61357;BME280;47227;46.752;23.576;2023-05-23T08:38:19;96128.86;;;21.39;43.44
61357;BME280;47227;46.752;23.576;2023-05-23T08:41:00;96127.77;;;21.52;43.28
61357;BME280;47227;46.752;23.576;2023-05-23T08:43:28;96122.22;;;21.64;43.34
61357;BME280;47227;46.752;23.576;2023-05-23T08:45:55;96123.02;;;21.74;41.35
61357;BME280;47227;46.752;23.576;2023-05-23T08:48:25;96117.64;;;21.84;41.54
61357;BME280;47227;46.752;23.576;2023-05-23T08:50:54;96115.88;;;21.95;41.62
61357;BME280;47227;46.752;23.576;2023-05-23T08:53:21;96114.13;;;22.08;41.83
61357;BME280;47227;46.752;23.576;2023-05-23T08:55:58;96113.66;;;22.24;41.69
61357;BME280;47227;46.752;23.576;2023-05-23T08:58:34;96113.13;;;22.40;41.63
61357;BME280;47227;46.752;23.576;2023-05-23T09:01:01;96115.14;;;22.56;40.67
61357;BME280;47227;46.752;23.576;2023-05-23T09:03:31;96111.38;;;22.69;40.74
61357;BME280;47227;46.752;23.576;2023-05-23T09:06:06;96110.59;;;22.81;40.21
61357;BME280;47227;46.752;23.576;2023-05-23T09:08:33;96115.07;;;22.94;39.82
61357;BME280;47227;46.752;23.576;2023-05-23T09:11:03;96116.30;;;23.05;39.51
61357;BME280;47227;46.752;23.576;2023-05-23T09:13:32;96116.45;;;23.14;38.50
61357;BME280;47227;46.752;23.576;2023-05-23T09:16:04;96118.73;;;23.23;38.50
61357;BME280;47227;46.752;23.576;2023-05-23T09:18:42;96114.93;;;23.34;37.25
61357;BME280;47227;46.752;23.576;2023-05-23T09:21:11;96112.00;;;23.40;37.13
61357;BME280;47227;46.752;23.576;2023-05-23T09:23:43;96112.05;;;23.43;36.58
61357;BME280;47227;46.752;23.576;2023-05-23T09:26:11;96111.70;;;23.57;36.78
61357;BME280;47227;46.752;23.576;2023-05-23T09:28:40;96110.23;;;23.71;37.52
61357;BME280;47227;46.752;23.576;2023-05-23T09:31:08;96112.77;;;23.91;37.70
61357;BME280;47227;46.752;23.576;2023-05-23T09:33:44;96114.61;;;24.09;36.97
61357;BME280;47227;46.752;23.576;2023-05-23T09:36:13;96113.12;;;24.26;36.26
61357;BME280;47227;46.752;23.576;2023-05-23T09:38:44;96103.70;;;24.32;34.28
61357;BME280;47227;46.752;23.576;2023-05-23T09:41:12;96104.23;;;24.29;33.61
61357;BME280;47227;46.752;23.576;2023-05-23T09:43:54;96099.91;;;24.12;33.50
61357;BME280;47227;46.752;23.576;2023-05-23T09:46:26;96103.80;;;24.14;34.24
61357;BME280;47227;46.752;23.576;2023-05-23T09:48:54;96102.63;;;24.27;34.51
61357;BME280;47227;46.752;23.576;2023-05-23T09:51:22;96102.27;;;24.52;35.41
61357;BME280;47227;46.752;23.576;2023-05-23T09:53:50;96099.00;;;24.40;33.19
61357;BME280;47227;46.752;23.576;2023-05-23T09:56:18;96096.27;;;24.21;32.94
61357;BME280;47227;46.752;23.576;2023-05-23T09:58:47;96095.66;;;24.38;34.10
61357;BME280;47227;46.752;23.576;2023-05-23T10:01:15;96093.00;;;24.63;33.56
61357;BME280;47227;46.752;23.576;2023-05-23T10:03:52;96090.53;;;24.49;31.23
61357;BME280;47227;46.752;23.576;2023-05-23T10:06:32;96088.91;;;24.56;30.94
61357;BME280;47227;46.752;23.576;2023-05-23T10:09:04;96085.06;;;24.78;31.82
61357;BME280;47227;46.752;23.576;2023-05-23T10:15:00;96078.30;;;25.29;31.58
61357;BME280;47227;46.752;23.576;2023-05-23T10:17:39;96073.83;;;25.38;30.60
61357;BME280;47227;46.752;23.576;2023-05-23T10:20:14;96074.23;;;25.56;29.10
61357;BME280;47227;46.752;23.576;2023-05-23T10:22:43;96070.20;;;25.27;27.84
61357;BME280;47227;46.752;23.576;2023-05-23T10:25:11;96068.14;;;25.19;28.63
61357;BME280;47227;46.752;23.576;2023-05-23T10:28:12;96065.76;;;25.27;28.95
61357;BME280;47227;46.752;23.576;2023-05-23T10:30:49;96066.10;;;25.38;28.19
61357;BME280;47227;46.752;23.576;2023-05-23T10:33:49;96065.72;;;25.75;28.42
61357;BME280;47227;46.752;23.576;2023-05-23T10:37:13;96060.73;;;25.65;26.54
61357;BME280;47227;46.752;23.576;2023-05-23T10:40:13;96059.45;;;25.70;26.81
61357;BME280;47227;46.752;23.576;2023-05-23T10:46:07;96053.21;;;26.28;28.35
61357;BME280;47227;46.752;23.576;2023-05-23T10:48:54;96049.98;;;26.71;27.42
61357;BME280;47227;46.752;23.576;2023-05-23T10:51:49;96052.08;;;27.12;27.66
61357;BME280;47227;46.752;23.576;2023-05-23T10:54:42;96050.47;;;27.56;27.58
61357;BME280;47227;46.752;23.576;2023-05-23T10:57:16;96050.88;;;27.90;26.26
61357;BME280;47227;46.752;23.576;2023-05-23T10:59:51;96052.73;;;28.26;26.82
61357;BME280;47227;46.752;23.576;2023-05-23T11:02:28;96046.52;;;28.41;25.18
61357;BME280;47227;46.752;23.576;2023-05-23T11:05:21;96048.39;;;28.37;25.42
61357;BME280;47227;46.752;23.576;2023-05-23T11:08:40;96038.61;;;28.07;24.82
61357;BME280;47227;46.752;23.576;2023-05-23T11:11:53;96038.29;;;27.82;25.35
61357;BME280;47227;46.752;23.576;2023-05-23T11:14:54;96040.15;;;28.19;25.86
61357;BME280;47227;46.752;23.576;2023-05-23T11:17:30;96039.20;;;28.49;25.25
61357;BME280;47227;46.752;23.576;2023-05-23T11:20:07;96038.30;;;28.44;24.43
61357;BME280;47227;46.752;23.576;2023-05-23T11:23:06;96040.39;;;28.89;24.29
61357;BME280;47227;46.752;23.576;2023-05-23T11:25:41;96045.80;;;29.35;23.92
61357;BME280;47227;46.752;23.576;2023-05-23T11:29:18;96042.48;;;29.45;22.36
61357;BME280;47227;46.752;23.576;2023-05-23T11:31:51;96041.23;;;29.42;22.33
61357;BME280;47227;46.752;23.576;2023-05-23T11:34:28;96038.30;;;29.16;21.66
61357;BME280;47227;46.752;23.576;2023-05-23T11:37:21;96030.70;;;28.85;22.53
61357;BME280;47227;46.752;23.576;2023-05-23T11:43:14;96029.26;;;29.22;22.81
61357;BME280;47227;46.752;23.576;2023-05-23T11:46:10;96030.64;;;29.51;22.75
61357;BME280;47227;46.752;23.576;2023-05-23T11:48:52;96027.14;;;30.20;22.90
61357;BME280;47227;46.752;23.576;2023-05-23T11:51:30;96028.34;;;30.83;22.42
61357;BME280;47227;46.752;23.576;2023-05-23T11:54:10;96025.36;;;31.43;20.32
61357;BME280;47227;46.752;23.576;2023-05-23T11:56:49;96019.97;;;31.68;19.28
61357;BME280;47227;46.752;23.576;2023-05-23T11:59:21;96014.34;;;31.91;20.11
61357;BME280;47227;46.752;23.576;2023-05-23T12:02:12;96015.61;;;32.27;19.76
61357;BME280;47227;46.752;23.576;2023-05-23T12:05:14;96014.54;;;32.80;20.56
61357;BME280;47227;46.752;23.576;2023-05-23T12:07:46;96014.00;;;33.02;19.82
61357;BME280;47227;46.752;23.576;2023-05-23T12:10:34;96009.14;;;32.99;18.83
61357;BME280;47227;46.752;23.576;2023-05-23T12:13:23;96004.92;;;33.00;18.75
61357;BME280;47227;46.752;23.576;2023-05-23T12:16:38;96008.01;;;33.34;17.98
61357;BME280;47227;46.752;23.576;2023-05-23T12:19:07;96009.55;;;33.13;17.97
61357;BME280;47227;46.752;23.576;2023-05-23T12:21:45;96011.84;;;33.70;18.10
61357;BME280;47227;46.752;23.576;2023-05-23T12:24:19;96007.99;;;34.17;17.24
61357;BME280;47227;46.752;23.576;2023-05-23T12:26:54;96000.82;;;34.55;17.29
61357;BME280;47227;46.752;23.576;2023-05-23T12:29:37;96000.34;;;34.62;16.91
61357;BME280;47227;46.752;23.576;2023-05-23T12:32:06;96001.30;;;34.59;15.96
61357;BME280;47227;46.752;23.576;2023-05-23T12:34:40;95997.49;;;34.91;16.41
61357;BME280;47227;46.752;23.576;2023-05-23T12:37:13;95995.59;;;35.23;16.63
61357;BME280;47227;46.752;23.576;2023-05-23T12:39:43;95991.64;;;35.39;16.50
61357;BME280;47227;46.752;23.576;2023-05-23T12:42:14;95984.02;;;34.16;16.48
61357;BME280;47227;46.752;23.576;2023-05-23T12:45:02;95984.56;;;33.49;17.15
61357;BME280;47227;46.752;23.576;2023-05-23T12:47:48;95985.85;;;33.44;17.32
61357;BME280;47227;46.752;23.576;2023-05-23T12:50:23;95984.10;;;32.92;17.90
61357;BME280;47227;46.752;23.576;2023-05-23T12:53:20;95985.27;;;33.55;18.02
61357;BME280;47227;46.752;23.576;2023-05-23T12:55:52;95988.08;;;34.29;18.19
61357;BME280;47227;46.752;23.576;2023-05-23T12:58:19;95987.14;;;35.06;17.95
61357;BME280;47227;46.752;23.576;2023-05-23T13:01:27;95980.23;;;35.55;16.56
61357;BME280;47227;46.752;23.576;2023-05-23T13:03:57;95976.09;;;35.96;16.21
61357;BME280;47227;46.752;23.576;2023-05-23T13:06:27;95978.70;;;36.29;15.42
61357;BME280;47227;46.752;23.576;2023-05-23T13:08:54;95982.21;;;36.40;15.59
61357;BME280;47227;46.752;23.576;2023-05-23T13:11:21;95979.85;;;36.53;15.38
61357;BME280;47227;46.752;23.576;2023-05-23T13:13:50;95976.36;;;36.62;14.90
61357;BME280;47227;46.752;23.576;2023-05-23T13:16:24;95973.42;;;36.75;14.91
61357;BME280;47227;46.752;23.576;2023-05-23T13:18:54;95973.02;;;36.95;14.58
61357;BME280;47227;46.752;23.576;2023-05-23T13:21:23;95975.36;;;36.91;13.80
61357;BME280;47227;46.752;23.576;2023-05-23T13:23:52;95977.10;;;36.74;14.26
61357;BME280;47227;46.752;23.576;2023-05-23T13:26:22;95972.21;;;36.79;14.26
61357;BME280;47227;46.752;23.576;2023-05-23T13:31:40;95968.50;;;35.82;15.25
61357;BME280;47227;46.752;23.576;2023-05-23T13:34:53;95967.86;;;35.09;15.49
61357;BME280;47227;46.752;23.576;2023-05-23T13:37:57;95964.89;;;34.48;16.06
61357;BME280;47227;46.752;23.576;2023-05-23T13:41:13;95962.08;;;33.33;18.43
61357;BME280;47227;46.752;23.576;2023-05-23T13:44:42;95959.05;;;31.53;20.40
61357;BME280;47227;46.752;23.576;2023-05-23T13:47:14;95959.20;;;30.48;20.97
61357;BME280;47227;46.752;23.576;2023-05-23T13:49:46;95959.80;;;30.13;20.84
61357;BME280;47227;46.752;23.576;2023-05-23T13:52:43;95958.17;;;30.32;20.49
61357;BME280;47227;46.752;23.576;2023-05-23T13:55:16;95957.98;;;30.23;21.01
61357;BME280;47227;46.752;23.576;2023-05-23T13:57:46;95957.01;;;30.29;21.41
61357;BME280;47227;46.752;23.576;2023-05-23T14:00:13;95956.56;;;30.38;20.82
61357;BME280;47227;46.752;23.576;2023-05-23T14:05:41;95955.00;;;31.11;20.16
61357;BME280;47227;46.752;23.576;2023-05-23T14:08:11;95950.41;;;31.30;19.79
61357;BME280;47227;46.752;23.576;2023-05-23T14:10:39;95947.98;;;31.45;19.64
61357;BME280;47227;46.752;23.576;2023-05-23T14:13:08;95951.86;;;32.11;19.16
61357;BME280;47227;46.752;23.576;2023-05-23T14:15:35;95948.64;;;32.99;18.71
61357;BME280;47227;46.752;23.576;2023-05-23T14:18:07;95948.33;;;33.86;17.75
61357;BME280;47227;46.752;23.576;2023-05-23T14:20:37;95948.65;;;34.35;16.61
61357;BME280;47227;46.752;23.576;2023-05-23T14:23:07;95948.11;;;34.97;16.74
61357;BME280;47227;46.752;23.576;2023-05-23T14:25:35;95942.66;;;35.34;15.86
61357;BME280;47227;46.752;23.576;2023-05-23T14:28:02;95939.92;;;35.10;15.61
61357;BME280;47227;46.752;23.576;2023-05-23T14:30:32;95935.96;;;33.78;16.53
61357;BME280;47227;46.752;23.576;2023-05-23T14:33:00;95935.59;;;33.67;16.84
61357;BME280;47227;46.752;23.576;2023-05-23T14:35:27;95934.79;;;33.75;16.77
61357;BME280;47227;46.752;23.576;2023-05-23T14:37:54;95937.05;;;34.07;16.34
61357;BME280;47227;46.752;23.576;2023-05-23T14:40:21;95932.57;;;33.85;16.27
61357;BME280;47227;46.752;23.576;2023-05-23T14:42:48;95928.95;;;34.30;15.84
61357;BME280;47227;46.752;23.576;2023-05-23T14:45:15;95929.95;;;35.15;15.75
61357;BME280;47227;46.752;23.576;2023-05-23T14:47:45;95928.94;;;35.62;15.20
61357;BME280;47227;46.752;23.576;2023-05-23T14:50:12;95930.40;;;34.94;15.64
61357;BME280;47227;46.752;23.576;2023-05-23T14:52:38;95928.20;;;36.00;15.26
61357;BME280;47227;46.752;23.576;2023-05-23T14:55:05;95927.66;;;36.16;14.40
61357;BME280;47227;46.752;23.576;2023-05-23T14:57:32;95927.13;;;36.73;14.67
61357;BME280;47227;46.752;23.576;2023-05-23T14:59:59;95929.30;;;37.37;14.19
61357;BME280;47227;46.752;23.576;2023-05-23T15:02:28;95929.95;;;37.96;13.84
61357;BME280;47227;46.752;23.576;2023-05-23T15:04:55;95925.85;;;38.05;13.39
61357;BME280;47227;46.752;23.576;2023-05-23T15:07:22;95926.08;;;38.40;13.72
61357;BME280;47227;46.752;23.576;2023-05-23T15:09:49;95924.64;;;38.09;13.46
61357;BME280;47227;46.752;23.576;2023-05-23T15:12:17;95921.93;;;37.06;13.84
61357;BME280;47227;46.752;23.576;2023-05-23T15:14:47;95924.67;;;36.88;15.56
61357;BME280;47227;46.752;23.576;2023-05-23T15:17:16;95921.15;;;37.38;16.00
61357;BME280;47227;46.752;23.576;2023-05-23T15:19:47;95921.13;;;37.76;16.48
61357;BME280;47227;46.752;23.576;2023-05-23T15:22:13;95919.95;;;38.12;16.52
61357;BME280;47227;46.752;23.576;2023-05-23T15:25:00;95919.41;;;37.95;16.78
61357;BME280;47227;46.752;23.576;2023-05-23T15:27:27;95919.26;;;36.83;17.24
61357;BME280;47227;46.752;23.576;2023-05-23T15:29:53;95922.86;;;36.96;17.06
61357;BME280;47227;46.752;23.576;2023-05-23T15:32:20;95917.42;;;36.94;17.52
61357;BME280;47227;46.752;23.576;2023-05-23T15:34:47;95919.86;;;37.06;17.38
61357;BME280;47227;46.752;23.576;2023-05-23T15:37:15;95913.40;;;37.02;17.36
61357;BME280;47227;46.752;23.576;2023-05-23T15:39:42;95916.45;;;36.96;17.40
61357;BME280;47227;46.752;23.576;2023-05-23T15:42:08;95912.45;;;36.33;17.89
61357;BME280;47227;46.752;23.576;2023-05-23T15:44:35;95916.27;;;36.57;17.82
61357;BME280;47227;46.752;23.576;2023-05-23T15:47:02;95915.94;;;36.59;17.73
61357;BME280;47227;46.752;23.576;2023-05-23T15:49:29;95911.57;;;36.65;17.77
61357;BME280;47227;46.752;23.576;2023-05-23T15:51:55;95913.64;;;36.73;17.56
61357;BME280;47227;46.752;23.576;2023-05-23T15:54:22;95915.48;;;36.78;17.69
61357;BME280;47227;46.752;23.576;2023-05-23T15:56:49;95914.39;;;36.72;17.48
61357;BME280;47227;46.752;23.576;2023-05-23T15:59:15;95913.42;;;36.49;17.88
61357;BME280;47227;46.752;23.576;2023-05-23T16:01:42;95917.41;;;36.10;18.22
61357;BME280;47227;46.752;23.576;2023-05-23T16:04:09;95912.56;;;35.91;18.71
61357;BME280;47227;46.752;23.576;2023-05-23T16:06:37;95911.08;;;35.91;18.62
61357;BME280;47227;46.752;23.576;2023-05-23T16:09:03;95913.58;;;35.95;18.37
61357;BME280;47227;46.752;23.576;2023-05-23T16:11:30;95916.20;;;35.89;17.96
61357;BME280;47227;46.752;23.576;2023-05-23T16:13:58;95916.83;;;35.74;18.03
61357;BME280;47227;46.752;23.576;2023-05-23T16:16:24;95917.56;;;35.59;18.43
61357;BME280;47227;46.752;23.576;2023-05-23T16:18:51;95915.38;;;35.52;18.15
61357;BME280;47227;46.752;23.576;2023-05-23T16:21:21;95907.43;;;35.26;18.73
61357;BME280;47227;46.752;23.576;2023-05-23T16:23:52;95910.73;;;35.12;18.98
61357;BME280;47227;46.752;23.576;2023-05-23T16:26:31;95911.65;;;34.94;18.84
61357;BME280;47227;46.752;23.576;2023-05-23T16:40:55;95907.36;;;33.24;20.91
61357;BME280;47227;46.752;23.576;2023-05-23T16:43:46;95906.95;;;32.45;21.06
61357;BME280;47227;46.752;23.576;2023-05-23T16:46:37;95908.48;;;32.44;21.24
61357;BME280;47227;46.752;23.576;2023-05-23T16:49:05;95910.52;;;32.45;21.48
61357;BME280;47227;46.752;23.576;2023-05-23T16:51:56;95915.56;;;32.14;21.84
61357;BME280;47227;46.752;23.576;2023-05-23T16:54:25;95918.39;;;31.37;22.85
61357;BME280;47227;46.752;23.576;2023-05-23T16:57:14;95919.08;;;31.00;23.50
61357;BME280;47227;46.752;23.576;2023-05-23T17:00:01;95917.94;;;30.66;23.83
61357;BME280;47227;46.752;23.576;2023-05-23T17:03:01;95916.30;;;30.66;24.16
61357;BME280;47227;46.752;23.576;2023-05-23T17:05:35;95917.83;;;30.45;24.38
61357;BME280;47227;46.752;23.576;2023-05-23T17:08:25;95917.98;;;29.71;25.33
61357;BME280;47227;46.752;23.576;2023-05-23T17:11:16;95916.91;;;29.24;26.11
61357;BME280;47227;46.752;23.576;2023-05-23T17:39:47;95924.36;;;26.13;31.91
61357;BME280;47227;46.752;23.576;2023-05-23T17:42:23;95924.10;;;25.84;31.80
61357;BME280;47227;46.752;23.576;2023-05-23T17:45:10;95932.59;;;25.52;31.78
61357;BME280;47227;46.752;23.576;2023-05-23T17:47:51;95930.29;;;25.20;31.80
61357;BME280;47227;46.752;23.576;2023-05-23T17:50:21;95931.75;;;24.84;32.40
61357;BME280;47227;46.752;23.576;2023-05-23T17:52:49;95934.67;;;24.50;33.14
61357;BME280;47227;46.752;23.576;2023-05-23T17:55:15;95938.46;;;24.13;34.55
61357;BME280;47227;46.752;23.576;2023-05-23T17:57:42;95940.45;;;23.63;35.48
61357;BME280;47227;46.752;23.576;2023-05-23T18:00:10;95942.52;;;23.24;36.05
61357;BME280;47227;46.752;23.576;2023-05-23T18:02:38;95948.64;;;22.92;35.90
61357;BME280;47227;46.752;23.576;2023-05-23T18:05:05;95950.94;;;22.61;36.01
61357;BME280;47227;46.752;23.576;2023-05-23T18:07:32;95951.30;;;22.30;36.47
61357;BME280;47227;46.752;23.576;2023-05-23T18:09:59;95953.18;;;22.01;37.53
61357;BME280;47227;46.752;23.576;2023-05-23T18:12:25;95958.61;;;21.78;37.97
61357;BME280;47227;46.752;23.576;2023-05-23T18:14:52;95960.31;;;21.55;39.54
61357;BME280;47227;46.752;23.576;2023-05-23T18:17:19;95963.96;;;21.33;39.62
61357;BME280;47227;46.752;23.576;2023-05-23T18:19:45;95965.35;;;21.13;39.55
61357;BME280;47227;46.752;23.576;2023-05-23T18:22:13;95965.38;;;20.95;40.16
61357;BME280;47227;46.752;23.576;2023-05-23T18:24:42;95968.84;;;20.78;40.51
61357;BME280;47227;46.752;23.576;2023-05-23T18:27:08;95976.36;;;20.62;41.22
61357;BME280;47227;46.752;23.576;2023-05-23T18:29:35;95978.13;;;20.50;40.39
61357;BME280;47227;46.752;23.576;2023-05-23T18:32:02;95981.36;;;20.38;40.64
61357;BME280;47227;46.752;23.576;2023-05-23T18:34:29;95984.54;;;20.25;40.84
61357;BME280;47227;46.752;23.576;2023-05-23T18:36:55;95984.90;;;20.10;41.20
61357;BME280;47227;46.752;23.576;2023-05-23T18:39:22;95986.64;;;19.96;41.56
61357;BME280;47227;46.752;23.576;2023-05-23T18:42:03;95980.83;;;19.81;41.23
61357;BME280;47227;46.752;23.576;2023-05-23T18:44:34;95980.84;;;19.68;41.15
61357;BME280;47227;46.752;23.576;2023-05-23T18:47:22;95982.71;;;19.57;41.24
61357;BME280;47227;46.752;23.576;2023-05-23T18:49:52;95982.42;;;19.46;41.27
61357;BME280;47227;46.752;23.576;2023-05-23T18:52:59;95983.70;;;19.33;43.02
61357;BME280;47227;46.752;23.576;2023-05-23T18:56:06;95987.85;;;19.22;42.29
61357;BME280;47227;46.752;23.576;2023-05-23T18:59:16;95992.10;;;19.08;43.07
61357;BME280;47227;46.752;23.576;2023-05-23T19:02:26;95991.43;;;18.96;42.87
61357;BME280;47227;46.752;23.576;2023-05-23T19:05:27;95993.93;;;18.84;42.84
61357;BME280;47227;46.752;23.576;2023-05-23T19:08:54;95997.42;;;18.72;43.01
61357;BME280;47227;46.752;23.576;2023-05-23T19:11:42;96004.16;;;18.59;43.37
61357;BME280;47227;46.752;23.576;2023-05-23T19:14:09;96007.16;;;18.50;44.61
61357;BME280;47227;46.752;23.576;2023-05-23T19:16:36;96007.30;;;18.40;47.37
61357;BME280;47227;46.752;23.576;2023-05-23T19:19:03;96015.79;;;18.27;45.80
61357;BME280;47227;46.752;23.576;2023-05-23T19:21:29;96020.63;;;18.15;45.71
61357;BME280;47227;46.752;23.576;2023-05-23T19:23:56;96022.80;;;18.02;46.91
61357;BME280;47227;46.752;23.576;2023-05-23T19:26:23;96025.05;;;17.89;47.77
61357;BME280;47227;46.752;23.576;2023-05-23T19:28:51;96033.28;;;17.76;47.83
61357;BME280;47227;46.752;23.576;2023-05-23T19:31:18;96035.48;;;17.64;48.21
61357;BME280;47227;46.752;23.576;2023-05-23T19:33:44;96034.30;;;17.55;48.61
61357;BME280;47227;46.752;23.576;2023-05-23T19:36:11;96034.77;;;17.48;49.11
61357;BME280;47227;46.752;23.576;2023-05-23T19:38:37;96041.05;;;17.42;49.19
61357;BME280;47227;46.752;23.576;2023-05-23T19:41:04;96044.35;;;17.36;49.81
61357;BME280;47227;46.752;23.576;2023-05-23T19:43:31;96047.48;;;17.30;49.91
61357;BME280;47227;46.752;23.576;2023-05-23T19:45:57;96050.83;;;17.21;49.85
61357;BME280;47227;46.752;23.576;2023-05-23T19:48:24;96053.88;;;17.14;50.73
61357;BME280;47227;46.752;23.576;2023-05-23T19:50:50;96052.26;;;17.05;51.11
61357;BME280;47227;46.752;23.576;2023-05-23T19:53:17;96052.09;;;16.96;51.08
61357;BME280;47227;46.752;23.576;2023-05-23T19:55:44;96052.98;;;16.88;50.77
61357;BME280;47227;46.752;23.576;2023-05-23T19:58:10;96050.17;;;16.82;50.84
61357;BME280;47227;46.752;23.576;2023-05-23T20:00:37;96046.59;;;16.77;50.77
61357;BME280;47227;46.752;23.576;2023-05-23T20:03:03;96049.85;;;16.72;50.73
61357;BME280;47227;46.752;23.576;2023-05-23T20:05:30;96051.80;;;16.66;51.28
61357;BME280;47227;46.752;23.576;2023-05-23T20:07:57;96055.36;;;16.62;51.69
61357;BME280;47227;46.752;23.576;2023-05-23T20:10:24;96057.23;;;16.58;51.57
61357;BME280;47227;46.752;23.576;2023-05-23T20:12:50;96058.46;;;16.54;51.52
61357;BME280;47227;46.752;23.576;2023-05-23T20:15:17;96059.00;;;16.51;51.48
61357;BME280;47227;46.752;23.576;2023-05-23T20:17:57;96061.35;;;16.47;51.58
61357;BME280;47227;46.752;23.576;2023-05-23T20:20:24;96062.95;;;16.41;51.82
61357;BME280;47227;46.752;23.576;2023-05-23T20:22:51;96066.82;;;16.38;52.22
61357;BME280;47227;46.752;23.576;2023-05-23T20:25:17;96071.12;;;16.34;52.09
61357;BME280;47227;46.752;23.576;2023-05-23T20:27:44;96075.38;;;16.29;52.18
61357;BME280;47227;46.752;23.576;2023-05-23T20:30:11;96076.52;;;16.24;52.76
61357;BME280;47227;46.752;23.576;2023-05-23T20:32:38;96080.08;;;16.19;53.36
61357;BME280;47227;46.752;23.576;2023-05-23T20:35:05;96081.10;;;16.14;53.34
61357;BME280;47227;46.752;23.576;2023-05-23T20:37:31;96081.31;;;16.11;53.22
61357;BME280;47227;46.752;23.576;2023-05-23T20:39:58;96077.30;;;16.07;53.33
61357;BME280;47227;46.752;23.576;2023-05-23T20:42:25;96071.59;;;16.02;53.29
61357;BME280;47227;46.752;23.576;2023-05-23T20:44:53;96066.94;;;15.98;53.08
61357;BME280;47227;46.752;23.576;2023-05-23T20:47:22;96069.67;;;15.95;53.15
61357;BME280;47227;46.752;23.576;2023-05-23T20:49:48;96072.88;;;15.93;53.17
61357;BME280;47227;46.752;23.576;2023-05-23T20:52:15;96073.23;;;15.91;53.51
61357;BME280;47227;46.752;23.576;2023-05-23T20:54:41;96074.02;;;15.85;53.26
61357;BME280;47227;46.752;23.576;2023-05-23T20:57:08;96074.59;;;15.77;53.62
61357;BME280;47227;46.752;23.576;2023-05-23T20:59:34;96078.00;;;15.70;53.65
61357;BME280;47227;46.752;23.576;2023-05-23T21:02:02;96082.99;;;15.62;54.16
61357;BME280;47227;46.752;23.576;2023-05-23T21:04:28;96082.02;;;15.55;54.68
61357;BME280;47227;46.752;23.576;2023-05-23T21:06:55;96085.73;;;15.48;54.83
61357;BME280;47227;46.752;23.576;2023-05-23T21:09:21;96085.63;;;15.40;55.22
61357;BME280;47227;46.752;23.576;2023-05-23T21:11:48;96085.88;;;15.32;55.71
61357;BME280;47227;46.752;23.576;2023-05-23T21:14:14;96088.04;;;15.23;55.67
61357;BME280;47227;46.752;23.576;2023-05-23T21:16:41;96088.11;;;15.16;55.78